Time;durP1;ratioP1;P1;durP2;ratioP2;P2;SDS_P1;SDS_P2;PMS_P1;PMS_P2;Temp;Humidity;BMP_temperature;BMP_pressure;BME280_temperature;BME280_humidity;BME280_pressure;Samples;Min_cycle;Max_cycle;Signal;HPM_P1;HPM_P2
2022/05/22 01:36:02;;;;;;;;;;;;;;;;;;;;;
2022/05/22 01:46:08;;;;;;;1.30;1.17;;;26.10;53.10;;;;;;4872018;29;20476;-91
2022/05/22 02:51:12;;;;;;;;;;;;;;;;;;;;;
2022/05/22 05:54:40;;;;;;;1.57;1.00;;;26.20;53.70;;;;;;4862141;29;20893;-89
2022/05/22 06:01:11;;;;;;;1.10;0.97;;;26.20;53.70;;;;;;4900997;29;20409;-89
2022/05/22 06:34:47;;;;;;;1.40;1.07;;;26.30;53.80;;;;;;4905320;29;20433;-88
2022/05/22 06:37:17;;;;;;;1.53;1.30;;;26.30;53.90;;;;;;4885797;29;20433;-89
2022/05/22 06:39:49;;;;;;;1.43;1.07;;;26.30;53.90;;;;;;4889988;29;20421;-88
2022/05/22 06:42:20;;;;;;;1.20;1.00;;;26.30;53.80;;;;;;4904786;29;20456;-88
2022/05/22 06:44:59;;;;;;;2.17;1.00;;;26.30;53.80;;;;;;4938292;29;20415;-88
2022/05/22 06:47:27;;;;;;;1.20;1.00;;;26.40;53.90;;;;;;4946968;29;20451;-88
2022/05/22 06:49:54;;;;;;;1.97;1.30;;;26.40;53.80;;;;;;4930928;29;20419;-89
2022/05/22 06:52:21;;;;;;;1.30;1.20;;;26.40;53.80;;;;;;4945264;29;20447;-88
2022/05/22 06:54:47;;;;;;;1.10;0.80;;;26.40;53.80;;;;;;4950728;28;20433;-89
2022/05/22 06:57:18;;;;;;;1.20;1.10;;;26.40;53.80;;;;;;4993479;28;20426;-89
2022/05/22 06:59:49;;;;;;;2.80;1.07;;;26.40;53.80;;;;;;5004355;28;20452;-89
2022/05/22 07:02:15;;;;;;;2.00;1.00;;;26.40;53.80;;;;;;4989000;28;20417;-89
2022/05/22 07:04:41;;;;;;;1.53;1.10;;;26.40;53.80;;;;;;5003858;28;20430;-88
2022/05/22 07:07:08;;;;;;;1.30;0.97;;;26.40;53.80;;;;;;4988150;28;20452;-89
2022/05/22 07:09:39;;;;;;;1.37;1.00;;;26.40;53.80;;;;;;5019726;28;20428;-89
2022/05/22 07:12:10;;;;;;;1.80;1.20;;;26.50;54.40;;;;;;5072522;28;20407;-88
2022/05/22 07:14:38;;;;;;;1.47;0.90;;;26.40;53.80;;;;;;5125296;28;20383;-89
2022/05/22 07:17:08;;;;;;;1.97;1.10;;;26.50;53.90;;;;;;5106198;28;20419;-87
2022/05/22 07:19:37;;;;;;;1.10;0.97;;;26.50;53.90;;;;;;5123662;28;20497;-89
2022/05/22 07:22:06;;;;;;;1.17;1.00;;;26.50;53.90;;;;;;5139768;28;20407;-89
2022/05/22 07:24:34;;;;;;;1.40;1.30;;;26.50;53.90;;;;;;5140279;28;20407;-89
2022/05/22 07:27:00;;;;;;;1.50;1.10;;;26.50;53.90;;;;;;5106166;28;20413;-88
2022/05/22 07:29:34;;;;;;;1.27;0.90;;;26.50;53.90;;;;;;5121677;28;20419;-88
2022/05/22 07:52:39;;;;;;;3.07;2.27;;;26.40;53.70;;;;;;4887937;29;20469;-88
2022/05/22 07:55:05;;;;;;;2.27;1.60;;;26.40;53.60;;;;;;4871287;29;20421;-88
2022/05/22 07:57:33;;;;;;;2.23;1.80;;;26.40;53.70;;;;;;4872537;29;20509;-88
2022/05/22 08:00:47;;;;;;;2.27;1.70;;;26.40;53.70;;;;;;4888023;29;20497;-90
2022/05/22 08:03:17;;;;;;;2.17;1.90;;;26.40;53.60;;;;;;4888625;29;20401;-88
2022/05/22 08:05:43;;;;;;;2.33;1.77;;;26.40;53.60;;;;;;4875269;29;20990;-88
2022/05/22 08:08:10;;;;;;;1.93;1.63;;;26.40;53.50;;;;;;4890475;29;20883;-88
2022/05/22 08:10:36;;;;;;;1.87;1.50;;;26.40;53.40;;;;;;4875006;29;20422;-88
2022/05/22 08:13:04;;;;;;;2.10;1.63;;;26.40;53.40;;;;;;4928258;29;20452;-88
2022/05/22 08:15:32;;;;;;;2.03;1.67;;;26.40;53.30;;;;;;4911918;29;20425;-88
2022/05/22 08:17:59;;;;;;;3.93;1.70;;;26.40;53.30;;;;;;4943118;28;20415;-88
2022/05/22 08:20:26;;;;;;;2.20;1.67;;;26.40;53.30;;;;;;5025356;28;20411;-88
2022/05/22 08:23:01;;;;;;;2.23;1.57;;;26.40;53.30;;;;;;5025396;28;20458;-89
2022/05/22 08:25:30;;;;;;;2.43;1.47;;;26.40;53.40;;;;;;5069981;28;20494;-88
2022/05/22 08:27:59;;;;;;;1.53;1.33;;;26.40;53.40;;;;;;5088397;28;20451;-89
2022/05/22 08:30:28;;;;;;;3.03;1.57;;;26.50;53.50;;;;;;5088721;28;20415;-88
2022/05/22 08:32:54;;;;;;;2.03;1.83;;;26.40;53.40;;;;;;5107067;28;20437;-88
2022/05/22 08:35:28;;;;;;;1.67;1.30;;;26.40;53.40;;;;;;5088232;28;20479;-88
2022/05/22 08:37:56;;;;;;;1.60;1.47;;;26.50;53.50;;;;;;5106753;28;20403;-88
2022/05/22 08:40:24;;;;;;;2.63;1.70;;;26.40;53.40;;;;;;5088299;28;20419;-88
2022/05/22 08:43:11;;;;;;;2.10;1.70;;;26.50;53.50;;;;;;5088460;28;20441;-88
2022/05/22 08:45:45;;;;;;;1.80;1.37;;;26.50;53.50;;;;;;5088227;28;20459;-88
2022/05/22 08:48:35;;;;;;;1.90;1.43;;;26.40;53.50;;;;;;5121671;28;20512;-88
2022/05/22 08:51:11;;;;;;;2.87;1.53;;;26.50;53.50;;;;;;5088847;28;20940;-88
2022/05/22 08:53:52;;;;;;;1.80;1.47;;;26.40;53.50;;;;;;5088812;28;20477;-88
2022/05/22 08:59:14;;;;;;;1.70;1.50;;;26.40;53.50;;;;;;5106668;28;20382;-89
2022/05/22 09:01:52;;;;;;;2.30;1.90;;;26.40;53.60;;;;;;5088010;28;20412;-88
2022/05/22 09:04:43;;;;;;;1.70;1.50;;;26.50;53.60;;;;;;5121758;28;20433;-88
2022/05/22 09:07:15;;;;;;;2.93;1.73;;;26.50;53.60;;;;;;5087965;28;20906;-88
2022/05/22 09:09:46;;;;;;;3.13;1.60;;;26.50;53.70;;;;;;5107633;28;20476;-88
2022/05/22 09:12:24;;;;;;;1.90;1.60;;;26.50;53.70;;;;;;5089655;28;20404;-88
2022/05/22 09:15:07;;;;;;;3.63;1.83;;;26.50;53.70;;;;;;5112366;28;20391;-84
2022/05/22 09:17:48;;;;;;;2.27;1.40;;;26.50;53.70;;;;;;5090338;28;20415;-84
2022/05/22 09:20:36;;;;;;;3.63;1.50;;;26.50;53.70;;;;;;5096748;28;20407;-84
2022/05/22 09:23:09;;;;;;;3.03;1.67;;;26.40;53.60;;;;;;5096836;28;20422;-84
2022/05/22 09:25:55;;;;;;;2.90;1.80;;;26.50;53.70;;;;;;5114277;28;20387;-83
2022/05/22 09:28:34;;;;;;;3.40;2.03;;;26.50;53.70;;;;;;5079855;28;20979;-84
2022/05/22 09:31:28;;;;;;;3.27;1.63;;;26.50;53.70;;;;;;5114263;28;20392;-84
2022/05/22 09:34:00;;;;;;;2.80;1.67;;;26.50;53.70;;;;;;5096104;28;20438;-84
2022/05/22 09:43:41;;;;;;;2.90;2.50;;;26.50;53.70;;;;;;5111757;28;20383;-84
2022/05/22 09:46:29;;;;;;;2.20;1.90;;;26.40;53.70;;;;;;5112620;28;20463;-85
2022/05/22 09:49:26;;;;;;;2.90;2.00;;;26.40;53.70;;;;;;5094934;28;20458;-85
2022/05/22 09:52:18;;;;;;;4.17;1.97;;;26.40;53.70;;;;;;5095234;28;20395;-85
2022/05/22 09:54:53;;;;;;;3.00;2.40;;;26.40;53.80;;;;;;5094755;28;20945;-85
2022/05/22 09:57:37;;;;;;;2.90;2.43;;;26.40;53.80;;;;;;5095116;28;20498;-85
2022/05/22 10:00:42;;;;;;;4.30;2.13;;;26.40;53.80;;;;;;5083439;28;20420;-84
2022/05/22 10:03:27;;;;;;;4.30;2.23;;;26.50;53.80;;;;;;5107322;28;20458;-83
2022/05/22 10:06:13;;;;;;;2.50;2.20;;;26.40;53.80;;;;;;5114836;28;20430;-84
2022/05/22 10:08:48;;;;;;;5.53;2.20;;;26.40;53.80;;;;;;5030547;28;20513;-84
2022/05/22 10:11:46;;;;;;;4.20;2.60;;;26.40;53.80;;;;;;5030166;28;20450;-84
2022/05/22 10:14:33;;;;;;;3.67;2.70;;;26.50;53.90;;;;;;5030672;28;20415;-84
2022/05/22 10:17:16;;;;;;;6.27;2.63;;;26.40;53.80;;;;;;5030599;28;20407;-84
2022/05/22 10:20:06;;;;;;;4.10;3.07;;;26.40;53.80;;;;;;5029997;28;20418;-87
2022/05/22 10:22:53;;;;;;;4.33;2.77;;;26.50;53.90;;;;;;5030957;28;20396;-84
2022/05/22 10:25:27;;;;;;;3.60;2.40;;;26.50;53.90;;;;;;5036942;28;20428;-84
2022/05/22 10:28:22;;;;;;;4.30;2.83;;;26.40;53.90;;;;;;4994044;28;20581;-85
2022/05/22 10:31:23;;;;;;;3.23;2.67;;;26.50;54.00;;;;;;5027198;28;20408;-85
2022/05/22 10:33:56;;;;;;;3.20;2.80;;;26.50;54.00;;;;;;5007056;28;20416;-84
2022/05/22 10:36:33;;;;;;;4.23;2.30;;;26.40;53.90;;;;;;5019182;28;20428;-84
2022/05/22 10:39:16;;;;;;;4.90;2.50;;;26.50;54.00;;;;;;5014531;28;20411;-86
2022/05/22 10:44:55;;;;;;;5.73;3.00;;;26.50;54.00;;;;;;5054249;28;20400;-86
2022/05/22 10:47:29;;;;;;;3.57;2.33;;;26.50;54.00;;;;;;5114012;28;20538;-85
2022/05/22 10:49:56;;;;;;;3.10;2.00;;;26.50;54.00;;;;;;5115540;28;20414;-83
2022/05/22 10:52:34;;;;;;;3.40;2.50;;;26.50;54.00;;;;;;5116026;28;20451;-83
2022/05/22 10:55:01;;;;;;;2.80;2.20;;;26.50;54.00;;;;;;5133128;28;20446;-83
2022/05/22 10:57:32;;;;;;;2.53;2.23;;;26.50;53.90;;;;;;5149524;27;20460;-83
2022/05/22 11:00:09;;;;;;;3.73;2.40;;;26.50;53.90;;;;;;5115780;28;20158;-83
2022/05/22 11:02:35;;;;;;;2.90;1.80;;;26.50;53.90;;;;;;5133155;28;20414;-83
2022/05/22 11:05:02;;;;;;;4.87;2.20;;;26.50;53.90;;;;;;5115758;28;20415;-83
2022/05/22 11:07:44;;;;;;;2.40;1.93;;;26.50;53.90;;;;;;5098071;28;20212;-83
2022/05/22 11:10:28;;;;;;;2.00;1.73;;;26.50;53.80;;;;;;5118154;28;20480;-83
2022/05/22 11:13:25;;;;;;;3.80;2.13;;;26.50;53.80;;;;;;5096938;28;20411;-83
2022/05/22 11:15:51;;;;;;;4.33;2.40;;;26.50;53.80;;;;;;5104758;28;20467;-83
2022/05/22 11:18:25;;;;;;;2.77;2.00;;;26.50;53.80;;;;;;5099398;28;20471;-82
2022/05/22 11:21:12;;;;;;;2.33;1.90;;;26.50;53.80;;;;;;5095648;28;20414;-82
2022/05/22 11:24:04;;;;;;;3.17;2.37;;;26.50;53.80;;;;;;5115271;28;20392;-83
2022/05/22 11:27:12;;;;;;;2.30;1.97;;;26.50;53.80;;;;;;5031771;28;20428;-82
2022/05/22 11:30:06;;;;;;;2.60;2.40;;;26.50;53.70;;;;;;5014399;28;20406;-83
2022/05/22 11:33:08;;;;;;;2.50;2.00;;;26.50;53.80;;;;;;4997661;28;20405;-83
2022/05/22 11:35:44;;;;;;;1.90;1.70;;;26.50;53.70;;;;;;4935252;29;20439;-83
2022/05/22 11:42:05;;;;;;;2.03;1.63;;;26.50;53.80;;;;;;4939936;29;20428;-83
2022/05/22 11:44:52;;;;;;;2.30;1.67;;;26.40;53.70;;;;;;4936281;29;20436;-83
2022/05/22 11:47:37;;;;;;;4.37;2.07;;;26.40;53.70;;;;;;4919195;29;20523;-83
2022/05/22 11:50:50;;;;;;;3.43;1.83;;;26.40;53.70;;;;;;4929846;29;20426;-82
2022/05/22 11:53:43;;;;;;;3.50;2.00;;;26.40;53.70;;;;;;4912305;29;20441;-83
2022/05/22 11:56:36;;;;;;;1.80;1.60;;;26.40;53.80;;;;;;4897229;29;20447;-82
2022/05/22 11:59:52;;;;;;;3.00;1.83;;;26.40;53.70;;;;;;4899762;29;20496;-83
2022/05/22 12:02:59;;;;;;;2.77;1.70;;;26.40;53.70;;;;;;4900548;29;20402;-83
2022/05/22 12:06:09;;;;;;;2.20;1.77;;;26.40;53.70;;;;;;4951626;29;20486;-84
2022/05/22 12:08:52;;;;;;;1.80;1.63;;;26.40;53.70;;;;;;4940097;29;20499;-83
2022/05/22 12:11:53;;;;;;;3.37;2.03;;;26.40;53.70;;;;;;4964299;28;20413;-84
2022/05/22 12:14:45;;;;;;;4.87;2.00;;;26.40;53.70;;;;;;4937136;29;20419;-84
2022/05/22 12:17:22;;;;;;;2.27;1.87;;;26.40;53.70;;;;;;4948736;29;20422;-83
2022/05/22 12:20:03;;;;;;;2.13;1.80;;;26.40;53.70;;;;;;4955595;29;20426;-82
2022/05/22 12:25:51;;;;;;;2.30;1.67;;;26.40;53.60;;;;;;4917969;29;20420;-83
2022/05/22 12:28:43;;;;;;;2.30;2.10;;;26.40;53.60;;;;;;4940324;28;20474;-83
2022/05/22 12:31:47;;;;;;;2.40;1.70;;;26.40;53.50;;;;;;5013402;28;20408;-83
2022/05/22 12:34:18;;;;;;;2.50;1.70;;;26.40;53.50;;;;;;4995576;28;20427;-83
2022/05/22 12:36:52;;;;;;;2.17;1.63;;;26.40;53.50;;;;;;4997673;28;20428;-83
2022/05/22 12:39:19;;;;;;;4.17;1.77;;;26.40;53.60;;;;;;4997177;28;20420;-84
2022/05/22 12:42:17;;;;;;;2.43;1.60;;;26.40;53.50;;;;;;4980109;28;20436;-83
2022/05/22 12:44:44;;;;;;;3.40;1.50;;;26.40;53.50;;;;;;4995974;28;20429;-84
2022/05/22 12:47:15;;;;;;;2.40;1.57;;;26.40;53.50;;;;;;4996155;28;20428;-84
2022/05/22 12:49:52;;;;;;;2.03;1.53;;;26.40;53.50;;;;;;5011690;28;20413;-84
2022/05/22 12:52:25;;;;;;;4.10;1.40;;;26.40;53.50;;;;;;5100989;28;20427;-83
2022/05/22 12:55:09;;;;;;;1.97;1.50;;;26.40;53.50;;;;;;5139687;27;20991;-83
2022/05/22 12:57:37;;;;;;;1.60;1.50;;;26.40;53.50;;;;;;5087707;28;20456;-83
2022/05/22 13:00:31;;;;;;;2.70;2.13;;;26.40;53.50;;;;;;5125586;28;20415;-83
2022/05/22 13:03:29;;;;;;;2.63;1.80;;;26.40;53.50;;;;;;5114375;28;20407;-83
2022/05/22 13:06:15;;;;;;;1.93;1.40;;;26.40;53.50;;;;;;5097022;28;20427;-86
2022/05/22 13:08:49;;;;;;;2.37;1.63;;;26.40;53.50;;;;;;5114365;28;20451;-84
2022/05/22 13:11:18;;;;;;;2.00;1.70;;;26.40;53.50;;;;;;5096672;28;20435;-83
2022/05/22 13:13:58;;;;;;;1.83;1.73;;;26.40;53.50;;;;;;5095910;28;20436;-84
2022/05/22 13:16:44;;;;;;;1.80;1.60;;;26.40;53.50;;;;;;5095171;28;20429;-84
2022/05/22 13:19:25;;;;;;;2.33;1.73;;;26.40;53.40;;;;;;5124716;28;20420;-84
2022/05/22 13:21:52;;;;;;;3.23;1.70;;;26.40;53.50;;;;;;5132865;28;20410;-83
2022/05/22 13:24:18;;;;;;;1.93;1.60;;;26.40;53.50;;;;;;5115275;28;20430;-84
2022/05/22 13:27:23;;;;;;;2.00;1.47;;;26.40;53.40;;;;;;5114693;28;20427;-84
2022/05/22 13:30:01;;;;;;;2.90;1.80;;;26.40;53.40;;;;;;5114434;28;20438;-84
2022/05/22 13:32:51;;;;;;;2.30;1.60;;;26.40;53.50;;;;;;5132791;28;20411;-83
2022/05/22 13:35:24;;;;;;;2.10;1.87;;;26.40;53.50;;;;;;5131860;28;20432;-83
2022/05/22 13:37:53;;;;;;;2.00;1.57;;;26.40;53.50;;;;;;5114253;28;20410;-83
2022/05/22 13:40:51;;;;;;;2.17;1.50;;;26.40;53.50;;;;;;5146625;27;20439;-83
2022/05/22 13:43:26;;;;;;;2.70;1.73;;;26.40;53.50;;;;;;5073469;28;20478;-83
2022/05/22 13:46:14;;;;;;;3.37;1.60;;;26.40;53.50;;;;;;5114229;28;20409;-83
2022/05/22 13:48:58;;;;;;;2.13;1.57;;;26.40;53.40;;;;;;5114239;28;20503;-83
2022/05/22 13:55:16;;;;;;;2.10;1.67;;;26.40;53.70;;;;;;5132199;28;20458;-84
2022/05/22 13:58:10;;;;;;;2.50;1.30;;;26.40;53.50;;;;;;5114062;28;20418;-82
2022/05/22 14:00:40;;;;;;;2.80;2.10;;;26.40;53.60;;;;;;5119740;27;20419;-82
2022/05/22 14:03:20;;;;;;;2.40;1.60;;;26.40;53.60;;;;;;5132700;28;20921;-83
2022/05/22 14:05:55;;;;;;;1.80;1.70;;;26.40;53.60;;;;;;5133100;28;20398;-83
2022/05/22 14:08:26;;;;;;;1.43;1.33;;;26.40;53.50;;;;;;5114186;28;20454;-83
2022/05/22 14:10:58;;;;;;;1.43;1.33;;;26.40;53.50;;;;;;5114031;28;20403;-83
2022/05/22 14:13:25;;;;;;;3.23;1.60;;;26.40;53.50;;;;;;5131706;28;20435;-85
2022/05/22 14:16:01;;;;;;;2.53;1.37;;;26.40;53.50;;;;;;5112803;28;20505;-84
2022/05/22 14:18:29;;;;;;;2.00;1.70;;;26.40;53.40;;;;;;5131546;28;20394;-84
2022/05/22 14:21:08;;;;;;;1.57;1.40;;;26.40;53.50;;;;;;5112605;28;20882;-84
2022/05/22 14:26:28;;;;;;;1.70;1.60;;;26.40;53.40;;;;;;5130397;28;20395;-84
2022/05/22 14:28:55;;;;;;;1.90;1.40;;;26.40;53.40;;;;;;5131011;28;20518;-84
2022/05/22 14:31:26;;;;;;;1.33;1.00;;;26.40;53.40;;;;;;5131353;28;20630;-83
2022/05/22 14:33:59;;;;;;;2.13;1.60;;;26.40;53.40;;;;;;5111820;28;20783;-84
2022/05/22 14:36:25;;;;;;;1.57;1.23;;;26.40;53.40;;;;;;5131713;28;20417;-84
2022/05/22 14:38:52;;;;;;;1.80;1.50;;;26.40;53.40;;;;;;5113619;28;20427;-84
2022/05/22 14:41:22;;;;;;;1.90;1.33;;;26.40;53.40;;;;;;5113705;28;20486;-84
2022/05/22 14:43:55;;;;;;;1.50;1.33;;;26.40;53.40;;;;;;5131755;28;20414;-84
2022/05/22 14:46:27;;;;;;;1.60;1.30;;;26.40;53.30;;;;;;5113748;28;20402;-84
2022/05/22 14:48:59;;;;;;;3.00;1.40;;;26.40;53.40;;;;;;5131090;28;20514;-84
2022/05/22 14:51:31;;;;;;;1.60;1.40;;;26.40;53.40;;;;;;5113011;28;20415;-84
2022/05/22 14:54:12;;;;;;;1.43;1.33;;;26.40;53.40;;;;;;5131355;28;20486;-84
2022/05/22 14:56:44;;;;;;;2.53;1.50;;;26.40;53.40;;;;;;5113743;28;20422;-84
2022/05/22 14:59:14;;;;;;;3.10;1.60;;;26.40;53.40;;;;;;5112928;28;20411;-84
2022/05/22 15:01:47;;;;;;;1.30;1.20;;;26.40;53.40;;;;;;5113191;28;20438;-84
2022/05/22 15:04:21;;;;;;;1.57;1.20;;;26.40;53.40;;;;;;5130760;28;20394;-84
2022/05/22 15:06:56;;;;;;;1.90;1.40;;;26.40;53.40;;;;;;5113207;28;20415;-84
2022/05/22 15:09:28;;;;;;;2.40;1.50;;;26.40;53.30;;;;;;5113231;28;20457;-84
2022/05/22 15:11:56;;;;;;;3.17;1.60;;;26.40;53.30;;;;;;5112543;28;20406;-84
2022/05/22 15:14:29;;;;;;;1.40;1.23;;;26.40;53.40;;;;;;5131096;28;20472;-84
2022/05/22 15:16:59;;;;;;;1.83;1.27;;;26.40;53.40;;;;;;5113087;28;20498;-84
2022/05/22 15:25:27;;;;;;;2.37;1.40;;;26.40;53.30;;;;;;5131040;28;20390;-84
2022/05/22 15:28:23;;;;;;;1.90;1.40;;;26.40;53.30;;;;;;5114397;28;20548;-83
2022/05/22 15:30:59;;;;;;;1.40;1.30;;;26.40;53.30;;;;;;5131446;28;20387;-83
2022/05/22 15:33:57;;;;;;;1.70;1.53;;;26.40;53.40;;;;;;5113303;28;20552;-83
2022/05/22 15:36:34;;;;;;;1.40;1.20;;;26.40;53.40;;;;;;5113404;28;20468;-83
2022/05/22 15:39:14;;;;;;;3.23;1.70;;;26.40;53.40;;;;;;5113263;28;20411;-83
2022/05/22 15:41:45;;;;;;;1.40;1.10;;;26.40;53.40;;;;;;5112716;28;20454;-83
2022/05/22 15:44:17;;;;;;;2.40;1.40;;;26.40;53.40;;;;;;5097241;28;20427;-83
2022/05/22 15:46:48;;;;;;;1.47;1.37;;;26.40;53.40;;;;;;5130470;28;20407;-83
2022/05/22 15:52:08;;;;;;;1.30;1.20;;;26.40;53.40;;;;;;5130121;28;20403;-83
2022/05/22 15:54:36;;;;;;;1.60;1.40;;;26.40;53.30;;;;;;5130563;28;20422;-83
2022/05/22 15:57:03;;;;;;;1.30;1.20;;;26.40;53.40;;;;;;5112858;28;20423;-83
2022/05/22 15:59:29;;;;;;;1.30;1.17;;;26.40;53.30;;;;;;5131543;28;20410;-84
2022/05/22 16:05:19;;;;;;;2.13;1.30;;;26.40;53.30;;;;;;5121628;28;20208;-83
2022/05/22 16:07:47;;;;;;;1.50;1.10;;;26.40;53.40;;;;;;5110423;28;20447;-84
2022/05/22 16:10:15;;;;;;;1.70;1.20;;;26.40;53.40;;;;;;5112880;28;20412;-84
2022/05/22 16:12:41;;;;;;;1.50;1.37;;;26.40;53.40;;;;;;5094789;28;20424;-83
2022/05/22 16:15:08;;;;;;;1.40;1.20;;;26.40;53.30;;;;;;5092298;28;20407;-84
2022/05/22 16:17:35;;;;;;;1.20;1.00;;;26.40;53.40;;;;;;5118542;28;20411;-84
2022/05/22 16:20:09;;;;;;;1.60;1.40;;;26.40;53.30;;;;;;5119673;28;20475;-84
2022/05/22 16:22:38;;;;;;;1.40;1.27;;;26.40;53.30;;;;;;5096717;28;20415;-83
2022/05/22 16:25:05;;;;;;;1.33;1.07;;;26.40;53.30;;;;;;5114171;28;20435;-84
2022/05/22 16:27:31;;;;;;;1.40;1.30;;;26.40;53.30;;;;;;5134377;28;20442;-84
2022/05/22 16:30:03;;;;;;;1.90;1.20;;;26.40;53.30;;;;;;5133983;28;20484;-84
2022/05/22 16:32:29;;;;;;;2.90;1.73;;;26.40;53.30;;;;;;5116047;28;20177;-84
2022/05/22 16:34:55;;;;;;;1.57;1.30;;;26.40;53.30;;;;;;5115992;28;20486;-84
2022/05/22 16:37:21;;;;;;;1.93;1.20;;;26.40;53.30;;;;;;5144893;27;20424;-84
2022/05/22 16:39:47;;;;;;;1.47;1.37;;;26.40;53.30;;;;;;5078580;28;20182;-84
2022/05/22 16:42:17;;;;;;;1.63;1.37;;;26.40;53.30;;;;;;5093151;28;20173;-85
2022/05/22 16:44:46;;;;;;;1.70;1.33;;;26.40;53.30;;;;;;5126044;28;20169;-83
2022/05/22 16:53:01;;;;;;;1.50;1.40;;;26.40;53.30;;;;;;5112366;28;20786;-84
2022/05/22 16:55:40;;;;;;;1.97;1.53;;;26.40;53.30;;;;;;5096610;28;20433;-83
2022/05/22 16:58:14;;;;;;;1.80;1.37;;;26.40;53.30;;;;;;5095094;28;20991;-84
2022/05/22 17:00:46;;;;;;;1.30;1.20;;;26.40;53.40;;;;;;5095308;28;20395;-84
2022/05/22 17:03:27;;;;;;;1.70;1.60;;;26.30;53.30;;;;;;5093493;28;20424;-84
2022/05/22 17:05:59;;;;;;;1.53;1.40;;;26.30;53.30;;;;;;5075786;28;20408;-85
2022/05/22 17:12:03;;;;;;;1.67;1.47;;;26.40;53.20;;;;;;5114037;28;20484;-83
2022/05/22 17:14:32;;;;;;;1.73;1.63;;;26.30;53.20;;;;;;5043807;28;20409;-84
2022/05/22 17:17:00;;;;;;;1.67;1.50;;;26.30;53.20;;;;;;5050461;28;20441;-83
2022/05/22 17:19:29;;;;;;;1.30;1.17;;;26.30;53.20;;;;;;5049533;28;20429;-82
2022/05/22 17:22:04;;;;;;;3.07;1.47;;;26.30;53.20;;;;;;5049455;28;20502;-83
2022/05/22 17:24:43;;;;;;;2.00;1.57;;;26.30;53.20;;;;;;5049693;28;20398;-82
2022/05/22 17:27:12;;;;;;;2.40;1.50;;;26.30;53.20;;;;;;5033314;28;20402;-83
2022/05/22 17:29:39;;;;;;;1.97;1.77;;;26.30;53.10;;;;;;5049594;28;20406;-85
2022/05/22 17:32:10;;;;;;;1.57;1.40;;;26.30;53.10;;;;;;5032282;28;20407;-84
2022/05/22 17:34:37;;;;;;;1.50;1.33;;;26.30;53.00;;;;;;5031915;28;20414;-84
2022/05/22 17:37:03;;;;;;;1.50;1.40;;;26.30;53.10;;;;;;5047862;28;20948;-84
2022/05/22 17:39:38;;;;;;;1.50;1.40;;;26.30;53.10;;;;;;5032225;28;20433;-84
2022/05/22 17:42:06;;;;;;;2.20;1.67;;;26.40;53.10;;;;;;5049072;28;20403;-83
2022/05/22 17:44:31;;;;;;;1.70;1.50;;;26.30;53.00;;;;;;5049420;28;20411;-83
2022/05/22 17:47:06;;;;;;;1.70;1.50;;;26.30;53.10;;;;;;5051740;28;20421;-83
2022/05/22 17:49:32;;;;;;;1.90;1.70;;;26.30;53.10;;;;;;5053982;28;20207;-83
2022/05/22 17:51:58;;;;;;;1.83;1.37;;;26.30;53.10;;;;;;5067439;28;20425;-84
2022/05/22 17:54:24;;;;;;;1.70;1.30;;;26.30;53.00;;;;;;5092984;28;20423;-84
2022/05/22 17:56:52;;;;;;;1.77;1.30;;;26.40;53.20;;;;;;5073038;28;20178;-82
2022/05/22 17:59:20;;;;;;;2.20;1.53;;;26.30;53.10;;;;;;5067371;28;20174;-84
2022/05/22 18:01:48;;;;;;;1.80;1.60;;;26.40;53.20;;;;;;5091764;28;20431;-85
2022/05/22 18:04:19;;;;;;;1.80;1.30;;;26.30;53.20;;;;;;5073133;28;20417;-84
2022/05/22 18:06:47;;;;;;;1.90;1.57;;;26.40;53.20;;;;;;5058898;28;20182;-84
2022/05/22 18:09:24;;;;;;;1.63;1.30;;;26.30;53.10;;;;;;5056116;28;20460;-85
2022/05/22 18:17:22;;;;;;;1.83;1.50;;;26.30;53.30;;;;;;5082646;28;20392;-85
2022/05/22 18:19:47;;;;;;;1.77;1.60;;;26.30;53.20;;;;;;5071600;28;20519;-85
2022/05/22 18:22:23;;;;;;;2.87;1.40;;;26.30;53.20;;;;;;5055581;28;20428;-85
2022/05/22 18:27:34;;;;;;;2.30;1.43;;;26.30;53.20;;;;;;5089715;28;20479;-85
2022/05/22 18:30:02;;;;;;;1.50;1.30;;;26.30;53.20;;;;;;5089220;28;20446;-85
2022/05/22 18:32:39;;;;;;;2.30;1.60;;;26.30;53.20;;;;;;5110150;28;20439;-85
2022/05/22 18:35:14;;;;;;;1.93;1.57;;;26.30;53.10;;;;;;5108509;28;20435;-85
2022/05/22 18:37:41;;;;;;;4.20;3.17;;;26.30;53.10;;;;;;5129947;28;20390;-84
2022/05/22 18:40:11;;;;;;;3.63;2.60;;;26.30;53.10;;;;;;5112955;28;20419;-84
2022/05/22 18:42:47;;;;;;;3.50;1.50;;;26.30;53.00;;;;;;5097590;28;20457;-84
2022/05/22 18:45:29;;;;;;;1.87;1.63;;;26.30;53.00;;;;;;5112763;28;20415;-84
2022/05/22 18:47:59;;;;;;;1.80;1.60;;;26.30;52.90;;;;;;5110700;28;20460;-84
2022/05/22 18:50:25;;;;;;;2.97;2.63;;;26.30;52.90;;;;;;5129663;28;20395;-84
2022/05/22 18:52:51;;;;;;;1.73;1.63;;;26.30;52.90;;;;;;5146055;27;20407;-84
2022/05/22 18:55:17;;;;;;;2.20;1.60;;;26.30;52.90;;;;;;5129782;28;20193;-84
2022/05/22 19:01:05;;;;;;;4.10;1.47;;;26.20;52.60;;;;;;5088754;28;20388;-85
2022/05/22 19:03:31;;;;;;;1.63;1.53;;;26.20;52.60;;;;;;5054500;28;20440;-84
2022/05/22 19:05:57;;;;;;;2.80;2.07;;;26.20;52.60;;;;;;5080016;28;20415;-84
2022/05/22 19:08:26;;;;;;;2.30;1.70;;;26.20;52.60;;;;;;5111299;28;20450;-84
2022/05/22 19:10:56;;;;;;;3.30;2.30;;;26.20;52.60;;;;;;5111254;28;20480;-84
2022/05/22 19:13:34;;;;;;;1.73;1.50;;;26.20;52.50;;;;;;5129924;28;20448;-84
2022/05/22 19:16:34;;;;;;;2.17;1.50;;;26.20;52.20;;;;;;5111679;28;20415;-85
2022/05/22 19:19:01;;;;;;;2.00;1.80;;;26.20;52.40;;;;;;5088982;28;20404;-85
2022/05/22 19:21:27;;;;;;;1.77;1.67;;;26.20;52.50;;;;;;5088843;28;20420;-85
2022/05/22 19:23:56;;;;;;;1.90;1.50;;;26.20;52.30;;;;;;5090892;28;20416;-85
2022/05/22 19:26:22;;;;;;;1.67;1.50;;;26.20;52.30;;;;;;5073561;28;20417;-86
2022/05/22 19:28:52;;;;;;;1.83;1.73;;;26.20;52.30;;;;;;5081160;28;20451;-85
2022/05/22 19:31:31;;;;;;;1.87;1.77;;;26.20;52.20;;;;;;5093298;28;20406;-84
2022/05/22 19:34:04;;;;;;;2.73;1.50;;;26.20;52.20;;;;;;5093615;28;20407;-84
2022/05/22 19:36:35;;;;;;;1.97;1.63;;;26.20;52.20;;;;;;5110120;28;20405;-84
2022/05/22 19:39:09;;;;;;;2.10;1.57;;;26.20;52.20;;;;;;5076864;28;20498;-85
2022/05/22 19:44:37;;;;;;;1.87;1.67;;;26.20;52.40;;;;;;5112481;28;20411;-85
2022/05/22 19:47:08;;;;;;;2.53;1.57;;;26.20;52.40;;;;;;5094833;28;20411;-85
2022/05/22 19:49:34;;;;;;;1.93;1.70;;;26.20;52.40;;;;;;5096045;28;20502;-85
2022/05/22 19:52:00;;;;;;;1.40;1.30;;;26.20;52.40;;;;;;5096683;28;20403;-85
2022/05/22 20:00:14;;;;;;;1.80;1.60;;;26.20;52.40;;;;;;5117345;28;20395;-87
2022/05/22 20:03:09;;;;;;;;;;;;;;;;;;;;;
2022/05/22 20:05:39;;;;;;;2.43;1.90;;;26.10;52.40;;;;;;5117107;28;20817;-85
2022/05/22 20:08:13;;;;;;;2.40;1.57;;;26.10;52.40;;;;;;5097280;28;20455;-86
2022/05/22 20:10:39;;;;;;;1.83;1.70;;;26.10;52.50;;;;;;5098474;28;20400;-85
2022/05/22 20:13:06;;;;;;;2.23;1.50;;;26.10;52.40;;;;;;5115400;28;20754;-86
2022/05/22 20:15:35;;;;;;;1.63;1.50;;;26.10;52.40;;;;;;5131828;28;20176;-86
2022/05/22 20:18:03;;;;;;;2.73;1.47;;;26.10;52.40;;;;;;5097104;28;20897;-86
2022/05/22 20:20:32;;;;;;;2.00;1.60;;;26.10;52.40;;;;;;5115320;28;20502;-86
2022/05/22 20:23:27;;;;;;;4.83;1.77;;;26.10;52.40;;;;;;5097708;28;20434;-85
2022/05/22 20:25:57;;;;;;;1.63;1.50;;;26.10;52.40;;;;;;5096966;28;20407;-85
2022/05/22 20:28:34;;;;;;;1.60;1.50;;;26.10;52.40;;;;;;5096665;28;20450;-86
2022/05/22 20:31:00;;;;;;;1.77;1.57;;;26.10;52.40;;;;;;5114653;28;20396;-86
2022/05/22 20:33:29;;;;;;;2.60;1.80;;;26.10;52.40;;;;;;5096418;28;20420;-85
2022/05/22 20:35:55;;;;;;;1.83;1.40;;;26.10;52.40;;;;;;5115207;28;20395;-85
2022/05/22 20:38:22;;;;;;;2.53;1.47;;;26.10;52.30;;;;;;5096598;28;20419;-85
2022/05/22 20:40:50;;;;;;;1.63;1.53;;;26.10;52.70;;;;;;5097209;28;20491;-85
2022/05/22 20:43:17;;;;;;;2.20;1.50;;;26.10;52.30;;;;;;5115028;28;20429;-85
2022/05/22 20:45:48;;;;;;;1.47;1.30;;;26.10;52.30;;;;;;5080784;28;20495;-85
2022/05/22 20:48:14;;;;;;;1.60;1.50;;;26.10;52.30;;;;;;5098388;28;20487;-86
2022/05/22 20:54:12;;;;;;;2.20;1.67;;;26.10;52.30;;;;;;5114042;28;20438;-86
2022/05/22 20:56:49;;;;;;;1.77;1.47;;;26.10;52.30;;;;;;5117508;28;20479;-86
2022/05/22 20:59:21;;;;;;;1.63;1.43;;;26.10;52.30;;;;;;5099253;28;20399;-86
2022/05/22 21:01:49;;;;;;;3.40;1.70;;;26.10;52.40;;;;;;5096560;28;20998;-86
2022/05/22 21:04:16;;;;;;;2.10;1.37;;;26.10;52.30;;;;;;5099382;28;20445;-86
2022/05/22 21:06:42;;;;;;;2.27;2.00;;;26.10;52.20;;;;;;5115401;28;20400;-86
2022/05/22 21:09:11;;;;;;;1.90;1.60;;;26.10;52.20;;;;;;5117118;28;20489;-86
2022/05/22 21:11:42;;;;;;;1.57;1.47;;;26.10;52.30;;;;;;5116152;28;20407;-85
2022/05/22 21:14:09;;;;;;;2.00;1.80;;;26.10;52.20;;;;;;5117156;28;20436;-85
2022/05/22 21:16:40;;;;;;;1.77;1.60;;;26.10;52.30;;;;;;5135357;28;20391;-85
2022/05/22 21:19:11;;;;;;;1.50;1.40;;;26.10;52.30;;;;;;5116123;28;20494;-85
2022/05/22 21:21:38;;;;;;;2.50;1.80;;;26.10;52.20;;;;;;5116751;28;20417;-86
2022/05/22 21:29:36;;;;;;;2.27;1.60;;;26.10;52.20;;;;;;5113983;28;20458;-86